sensor_id;sensor_type;location;lat;lon;timestamp;P1;durP1;ratioP1;P2;durP2;ratioP2
20417;SDS011;10368;51.436;6.774;2023-04-23T00:01:06;55.47;;;32.03;;
20417;SDS011;10368;51.436;6.774;2023-04-23T00:03:34;55.20;;;33.27;;
20417;SDS011;10368;51.436;6.774;2023-04-23T00:06:03;58.93;;;33.33;;
20417;SDS011;10368;51.436;6.774;2023-04-23T00:08:31;56.90;;;32.13;;
20417;SDS011;10368;51.436;6.774;2023-04-23T00:10:58;63.90;;;35.43;;
20417;SDS011;10368;51.436;6.774;2023-04-23T00:13:25;54.13;;;33.77;;
20417;SDS011;10368;51.436;6.774;2023-04-23T00:15:53;55.37;;;33.00;;
20417;SDS011;10368;51.436;6.774;2023-04-23T00:18:20;53.60;;;31.93;;
20417;SDS011;10368;51.436;6.774;2023-04-23T00:20:47;57.10;;;34.67;;
20417;SDS011;10368;51.436;6.774;2023-04-23T00:23:15;57.73;;;33.33;;
20417;SDS011;10368;51.436;6.774;2023-04-23T00:25:42;56.87;;;34.30;;
20417;SDS011;10368;51.436;6.774;2023-04-23T00:28:09;57.03;;;32.70;;
20417;SDS011;10368;51.436;6.774;2023-04-23T00:30:36;58.67;;;33.40;;
20417;SDS011;10368;51.436;6.774;2023-04-23T00:33:04;63.67;;;34.73;;
20417;SDS011;10368;51.436;6.774;2023-04-23T00:35:31;57.23;;;32.20;;
20417;SDS011;10368;51.436;6.774;2023-04-23T00:37:58;57.63;;;31.93;;
20417;SDS011;10368;51.436;6.774;2023-04-23T00:40:25;54.43;;;31.27;;
20417;SDS011;10368;51.436;6.774;2023-04-23T00:42:52;51.83;;;32.03;;
20417;SDS011;10368;51.436;6.774;2023-04-23T00:45:21;52.43;;;29.77;;
20417;SDS011;10368;51.436;6.774;2023-04-23T00:47:48;49.13;;;31.00;;
20417;SDS011;10368;51.436;6.774;2023-04-23T00:50:15;48.83;;;29.63;;
20417;SDS011;10368;51.436;6.774;2023-04-23T00:52:43;47.80;;;30.80;;
20417;SDS011;10368;51.436;6.774;2023-04-23T00:55:10;47.53;;;28.27;;
20417;SDS011;10368;51.436;6.774;2023-04-23T00:57:37;47.93;;;28.87;;
20417;SDS011;10368;51.436;6.774;2023-04-23T01:00:05;47.23;;;28.70;;
20417;SDS011;10368;51.436;6.774;2023-04-23T01:02:33;52.27;;;30.93;;
20417;SDS011;10368;51.436;6.774;2023-04-23T01:05:02;55.57;;;32.47;;
20417;SDS011;10368;51.436;6.774;2023-04-23T01:07:33;51.77;;;30.77;;
20417;SDS011;10368;51.436;6.774;2023-04-23T01:10:01;51.73;;;29.80;;
20417;SDS011;10368;51.436;6.774;2023-04-23T01:12:29;46.40;;;28.33;;
20417;SDS011;10368;51.436;6.774;2023-04-23T01:14:56;50.00;;;28.97;;
20417;SDS011;10368;51.436;6.774;2023-04-23T01:17:23;45.97;;;28.70;;
20417;SDS011;10368;51.436;6.774;2023-04-23T01:19:51;45.17;;;28.13;;
20417;SDS011;10368;51.436;6.774;2023-04-23T01:22:19;41.33;;;27.40;;
20417;SDS011;10368;51.436;6.774;2023-04-23T01:24:46;42.13;;;27.50;;
20417;SDS011;10368;51.436;6.774;2023-04-23T01:27:13;46.67;;;27.53;;
20417;SDS011;10368;51.436;6.774;2023-04-23T01:29:41;41.70;;;25.90;;
20417;SDS011;10368;51.436;6.774;2023-04-23T01:32:08;45.77;;;26.93;;
20417;SDS011;10368;51.436;6.774;2023-04-23T01:34:35;41.40;;;25.70;;
20417;SDS011;10368;51.436;6.774;2023-04-23T01:37:03;37.50;;;25.73;;
20417;SDS011;10368;51.436;6.774;2023-04-23T01:39:30;41.23;;;25.53;;
20417;SDS011;10368;51.436;6.774;2023-04-23T01:41:58;38.17;;;24.27;;
20417;SDS011;10368;51.436;6.774;2023-04-23T01:44:26;37.63;;;24.07;;
20417;SDS011;10368;51.436;6.774;2023-04-23T01:46:53;38.97;;;25.67;;
20417;SDS011;10368;51.436;6.774;2023-04-23T01:49:21;36.40;;;24.87;;
20417;SDS011;10368;51.436;6.774;2023-04-23T01:51:48;33.77;;;24.73;;
20417;SDS011;10368;51.436;6.774;2023-04-23T01:54:16;36.27;;;24.77;;
20417;SDS011;10368;51.436;6.774;2023-04-23T01:56:43;37.77;;;24.90;;
20417;SDS011;10368;51.436;6.774;2023-04-23T01:59:10;35.37;;;24.37;;
20417;SDS011;10368;51.436;6.774;2023-04-23T02:01:43;33.40;;;23.20;;
20417;SDS011;10368;51.436;6.774;2023-04-23T02:04:12;34.63;;;24.83;;
20417;SDS011;10368;51.436;6.774;2023-04-23T02:06:40;37.67;;;23.73;;
20417;SDS011;10368;51.436;6.774;2023-04-23T02:09:07;34.70;;;24.73;;
20417;SDS011;10368;51.436;6.774;2023-04-23T02:11:34;35.77;;;24.03;;
20417;SDS011;10368;51.436;6.774;2023-04-23T02:14:02;36.97;;;24.33;;
20417;SDS011;10368;51.436;6.774;2023-04-23T02:16:30;33.50;;;23.33;;
20417;SDS011;10368;51.436;6.774;2023-04-23T02:18:58;33.27;;;23.27;;
20417;SDS011;10368;51.436;6.774;2023-04-23T02:21:25;37.23;;;25.17;;
20417;SDS011;10368;51.436;6.774;2023-04-23T02:23:52;38.43;;;23.77;;
20417;SDS011;10368;51.436;6.774;2023-04-23T02:26:19;34.97;;;24.03;;
20417;SDS011;10368;51.436;6.774;2023-04-23T02:28:47;38.43;;;25.20;;
20417;SDS011;10368;51.436;6.774;2023-04-23T02:31:15;45.97;;;24.83;;
20417;SDS011;10368;51.436;6.774;2023-04-23T02:33:43;36.27;;;25.10;;
20417;SDS011;10368;51.436;6.774;2023-04-23T02:36:12;34.97;;;24.10;;
20417;SDS011;10368;51.436;6.774;2023-04-23T02:38:39;34.67;;;24.13;;
20417;SDS011;10368;51.436;6.774;2023-04-23T02:41:10;38.40;;;26.30;;
20417;SDS011;10368;51.436;6.774;2023-04-23T02:43:37;33.43;;;22.80;;
20417;SDS011;10368;51.436;6.774;2023-04-23T02:46:04;31.30;;;23.00;;
20417;SDS011;10368;51.436;6.774;2023-04-23T02:48:39;38.23;;;25.80;;
20417;SDS011;10368;51.436;6.774;2023-04-23T02:51:07;39.00;;;26.03;;
20417;SDS011;10368;51.436;6.774;2023-04-23T02:53:34;34.87;;;24.37;;
20417;SDS011;10368;51.436;6.774;2023-04-23T02:56:04;35.07;;;23.53;;
20417;SDS011;10368;51.436;6.774;2023-04-23T02:58:32;34.70;;;23.83;;
20417;SDS011;10368;51.436;6.774;2023-04-23T03:00:59;34.23;;;25.03;;
20417;SDS011;10368;51.436;6.774;2023-04-23T03:03:27;37.33;;;24.70;;
20417;SDS011;10368;51.436;6.774;2023-04-23T03:05:57;33.53;;;24.30;;
20417;SDS011;10368;51.436;6.774;2023-04-23T03:08:25;34.33;;;25.20;;
20417;SDS011;10368;51.436;6.774;2023-04-23T03:10:52;32.23;;;23.40;;
20417;SDS011;10368;51.436;6.774;2023-04-23T03:13:19;38.90;;;24.37;;
20417;SDS011;10368;51.436;6.774;2023-04-23T03:15:46;36.33;;;25.03;;
20417;SDS011;10368;51.436;6.774;2023-04-23T03:18:14;32.67;;;23.17;;
20417;SDS011;10368;51.436;6.774;2023-04-23T03:20:41;33.20;;;24.27;;
20417;SDS011;10368;51.436;6.774;2023-04-23T03:23:08;33.37;;;23.70;;
20417;SDS011;10368;51.436;6.774;2023-04-23T03:25:35;33.33;;;23.70;;
20417;SDS011;10368;51.436;6.774;2023-04-23T03:28:02;35.60;;;24.53;;
20417;SDS011;10368;51.436;6.774;2023-04-23T03:30:30;32.80;;;24.10;;
20417;SDS011;10368;51.436;6.774;2023-04-23T03:32:58;33.87;;;24.30;;
20417;SDS011;10368;51.436;6.774;2023-04-23T03:35:27;35.13;;;23.50;;
20417;SDS011;10368;51.436;6.774;2023-04-23T03:37:54;35.13;;;25.33;;
20417;SDS011;10368;51.436;6.774;2023-04-23T03:40:21;34.83;;;24.70;;
20417;SDS011;10368;51.436;6.774;2023-04-23T03:42:48;34.20;;;25.33;;
20417;SDS011;10368;51.436;6.774;2023-04-23T03:45:16;32.50;;;24.20;;
20417;SDS011;10368;51.436;6.774;2023-04-23T03:47:43;34.57;;;24.67;;
20417;SDS011;10368;51.436;6.774;2023-04-23T03:50:11;34.27;;;24.77;;
20417;SDS011;10368;51.436;6.774;2023-04-23T03:52:38;34.93;;;23.97;;
20417;SDS011;10368;51.436;6.774;2023-04-23T03:55:06;30.97;;;23.13;;
20417;SDS011;10368;51.436;6.774;2023-04-23T03:57:33;36.40;;;23.77;;
20417;SDS011;10368;51.436;6.774;2023-04-23T04:00:01;32.63;;;23.43;;
20417;SDS011;10368;51.436;6.774;2023-04-23T04:02:28;40.67;;;25.80;;
20417;SDS011;10368;51.436;6.774;2023-04-23T04:04:56;35.43;;;24.80;;
20417;SDS011;10368;51.436;6.774;2023-04-23T04:07:23;32.87;;;24.60;;
20417;SDS011;10368;51.436;6.774;2023-04-23T04:09:51;35.90;;;25.53;;
20417;SDS011;10368;51.436;6.774;2023-04-23T04:12:18;37.83;;;26.30;;
20417;SDS011;10368;51.436;6.774;2023-04-23T04:14:45;36.60;;;24.77;;
20417;SDS011;10368;51.436;6.774;2023-04-23T04:17:12;39.23;;;25.27;;
20417;SDS011;10368;51.436;6.774;2023-04-23T04:19:41;41.13;;;26.03;;
20417;SDS011;10368;51.436;6.774;2023-04-23T04:22:08;32.40;;;23.07;;
20417;SDS011;10368;51.436;6.774;2023-04-23T04:24:35;41.77;;;25.40;;
20417;SDS011;10368;51.436;6.774;2023-04-23T04:27:03;37.03;;;25.83;;
20417;SDS011;10368;51.436;6.774;2023-04-23T04:29:31;35.50;;;23.90;;
20417;SDS011;10368;51.436;6.774;2023-04-23T04:31:58;37.33;;;26.37;;
20417;SDS011;10368;51.436;6.774;2023-04-23T04:34:26;34.80;;;25.90;;
20417;SDS011;10368;51.436;6.774;2023-04-23T04:36:53;35.80;;;25.70;;
20417;SDS011;10368;51.436;6.774;2023-04-23T04:39:20;36.00;;;24.60;;
20417;SDS011;10368;51.436;6.774;2023-04-23T04:41:48;39.97;;;25.77;;
20417;SDS011;10368;51.436;6.774;2023-04-23T04:44:15;36.20;;;25.67;;
20417;SDS011;10368;51.436;6.774;2023-04-23T04:46:42;38.73;;;26.03;;
20417;SDS011;10368;51.436;6.774;2023-04-23T04:49:10;37.07;;;26.23;;
20417;SDS011;10368;51.436;6.774;2023-04-23T04:51:38;36.70;;;24.97;;
20417;SDS011;10368;51.436;6.774;2023-04-23T04:54:06;34.00;;;24.63;;
20417;SDS011;10368;51.436;6.774;2023-04-23T04:56:33;34.60;;;23.83;;
20417;SDS011;10368;51.436;6.774;2023-04-23T04:59:00;34.47;;;25.13;;
20417;SDS011;10368;51.436;6.774;2023-04-23T05:01:28;36.10;;;25.60;;
20417;SDS011;10368;51.436;6.774;2023-04-23T05:03:56;32.00;;;23.70;;
20417;SDS011;10368;51.436;6.774;2023-04-23T05:06:23;31.97;;;23.47;;
20417;SDS011;10368;51.436;6.774;2023-04-23T05:08:51;32.63;;;24.13;;
20417;SDS011;10368;51.436;6.774;2023-04-23T05:11:18;33.43;;;23.30;;
20417;SDS011;10368;51.436;6.774;2023-04-23T05:13:46;29.70;;;23.57;;
20417;SDS011;10368;51.436;6.774;2023-04-23T05:16:13;31.20;;;23.70;;
20417;SDS011;10368;51.436;6.774;2023-04-23T05:18:41;35.47;;;23.87;;
20417;SDS011;10368;51.436;6.774;2023-04-23T05:21:08;31.97;;;23.60;;
20417;SDS011;10368;51.436;6.774;2023-04-23T05:23:35;33.30;;;22.90;;
20417;SDS011;10368;51.436;6.774;2023-04-23T05:26:02;29.63;;;22.20;;
20417;SDS011;10368;51.436;6.774;2023-04-23T05:28:29;30.33;;;21.83;;
20417;SDS011;10368;51.436;6.774;2023-04-23T05:30:57;26.70;;;21.00;;
20417;SDS011;10368;51.436;6.774;2023-04-23T05:33:25;25.57;;;21.13;;
20417;SDS011;10368;51.436;6.774;2023-04-23T05:35:58;27.70;;;21.33;;
20417;SDS011;10368;51.436;6.774;2023-04-23T05:38:26;27.23;;;21.67;;
20417;SDS011;10368;51.436;6.774;2023-04-23T05:40:53;25.50;;;20.50;;
20417;SDS011;10368;51.436;6.774;2023-04-23T05:43:20;24.50;;;21.23;;
20417;SDS011;10368;51.436;6.774;2023-04-23T05:45:47;25.23;;;21.37;;
20417;SDS011;10368;51.436;6.774;2023-04-23T05:48:14;27.87;;;20.87;;
20417;SDS011;10368;51.436;6.774;2023-04-23T05:50:41;25.47;;;20.83;;
20417;SDS011;10368;51.436;6.774;2023-04-23T05:53:08;25.10;;;20.30;;
20417;SDS011;10368;51.436;6.774;2023-04-23T05:55:36;25.70;;;20.73;;
20417;SDS011;10368;51.436;6.774;2023-04-23T05:58:03;23.17;;;18.93;;
20417;SDS011;10368;51.436;6.774;2023-04-23T06:00:31;22.87;;;18.77;;
20417;SDS011;10368;51.436;6.774;2023-04-23T06:03:00;24.77;;;19.07;;
20417;SDS011;10368;51.436;6.774;2023-04-23T06:05:27;22.13;;;18.70;;
20417;SDS011;10368;51.436;6.774;2023-04-23T06:07:55;23.40;;;20.30;;
20417;SDS011;10368;51.436;6.774;2023-04-23T06:10:22;28.03;;;19.70;;
20417;SDS011;10368;51.436;6.774;2023-04-23T06:12:49;21.17;;;18.83;;
20417;SDS011;10368;51.436;6.774;2023-04-23T06:15:16;20.70;;;18.60;;
20417;SDS011;10368;51.436;6.774;2023-04-23T06:17:43;22.57;;;19.10;;
20417;SDS011;10368;51.436;6.774;2023-04-23T06:20:10;22.83;;;19.60;;
20417;SDS011;10368;51.436;6.774;2023-04-23T06:22:37;24.37;;;18.67;;
20417;SDS011;10368;51.436;6.774;2023-04-23T06:25:05;20.07;;;17.93;;
20417;SDS011;10368;51.436;6.774;2023-04-23T06:27:32;20.47;;;17.97;;
20417;SDS011;10368;51.436;6.774;2023-04-23T06:29:59;23.97;;;17.93;;
20417;SDS011;10368;51.436;6.774;2023-04-23T06:32:27;21.57;;;18.30;;
20417;SDS011;10368;51.436;6.774;2023-04-23T06:34:54;52.80;;;16.87;;
20417;SDS011;10368;51.436;6.774;2023-04-23T06:37:27;19.53;;;17.57;;
20417;SDS011;10368;51.436;6.774;2023-04-23T06:39:57;23.00;;;19.37;;
20417;SDS011;10368;51.436;6.774;2023-04-23T06:42:24;18.67;;;16.63;;
20417;SDS011;10368;51.436;6.774;2023-04-23T06:44:52;20.40;;;17.70;;
20417;SDS011;10368;51.436;6.774;2023-04-23T06:47:19;21.40;;;17.77;;
20417;SDS011;10368;51.436;6.774;2023-04-23T06:49:46;19.87;;;17.00;;
20417;SDS011;10368;51.436;6.774;2023-04-23T06:52:13;20.10;;;18.00;;
20417;SDS011;10368;51.436;6.774;2023-04-23T06:54:40;20.03;;;16.80;;
20417;SDS011;10368;51.436;6.774;2023-04-23T06:57:08;19.60;;;17.50;;
20417;SDS011;10368;51.436;6.774;2023-04-23T06:59:35;18.90;;;15.17;;
20417;SDS011;10368;51.436;6.774;2023-04-23T07:02:02;19.93;;;16.60;;
20417;SDS011;10368;51.436;6.774;2023-04-23T07:04:30;21.43;;;17.73;;
20417;SDS011;10368;51.436;6.774;2023-04-23T07:06:57;18.27;;;16.43;;
20417;SDS011;10368;51.436;6.774;2023-04-23T07:09:25;17.43;;;15.63;;
20417;SDS011;10368;51.436;6.774;2023-04-23T07:11:53;19.10;;;15.23;;
20417;SDS011;10368;51.436;6.774;2023-04-23T07:14:20;16.43;;;14.67;;
20417;SDS011;10368;51.436;6.774;2023-04-23T07:16:47;15.17;;;13.63;;
20417;SDS011;10368;51.436;6.774;2023-04-23T07:19:14;17.63;;;15.00;;
20417;SDS011;10368;51.436;6.774;2023-04-23T07:21:41;15.53;;;13.57;;
20417;SDS011;10368;51.436;6.774;2023-04-23T07:24:08;16.40;;;14.70;;
20417;SDS011;10368;51.436;6.774;2023-04-23T07:26:36;14.30;;;12.90;;
20417;SDS011;10368;51.436;6.774;2023-04-23T07:29:04;15.40;;;12.90;;
20417;SDS011;10368;51.436;6.774;2023-04-23T07:31:32;13.43;;;12.07;;
20417;SDS011;10368;51.436;6.774;2023-04-23T07:34:00;13.60;;;12.10;;
20417;SDS011;10368;51.436;6.774;2023-04-23T07:36:27;12.33;;;11.10;;
20417;SDS011;10368;51.436;6.774;2023-04-23T07:38:54;11.63;;;10.40;;
20417;SDS011;10368;51.436;6.774;2023-04-23T07:41:21;11.47;;;10.37;;
20417;SDS011;10368;51.436;6.774;2023-04-23T07:43:48;16.07;;;10.17;;
20417;SDS011;10368;51.436;6.774;2023-04-23T07:46:16;12.83;;;10.33;;
20417;SDS011;10368;51.436;6.774;2023-04-23T07:48:43;13.47;;;11.67;;
20417;SDS011;10368;51.436;6.774;2023-04-23T07:51:10;10.10;;;9.17;;
20417;SDS011;10368;51.436;6.774;2023-04-23T07:53:37;11.37;;;10.37;;
20417;SDS011;10368;51.436;6.774;2023-04-23T07:56:04;15.93;;;9.03;;
20417;SDS011;10368;51.436;6.774;2023-04-23T07:58:31;12.40;;;9.20;;
20417;SDS011;10368;51.436;6.774;2023-04-23T08:01:00;9.43;;;8.47;;
20417;SDS011;10368;51.436;6.774;2023-04-23T08:03:27;10.20;;;9.10;;
20417;SDS011;10368;51.436;6.774;2023-04-23T08:05:55;9.50;;;8.00;;
20417;SDS011;10368;51.436;6.774;2023-04-23T08:08:22;9.87;;;8.87;;
20417;SDS011;10368;51.436;6.774;2023-04-23T08:10:49;9.00;;;8.03;;
20417;SDS011;10368;51.436;6.774;2023-04-23T08:13:17;10.33;;;7.70;;
20417;SDS011;10368;51.436;6.774;2023-04-23T08:15:44;8.27;;;7.13;;
20417;SDS011;10368;51.436;6.774;2023-04-23T08:18:11;8.53;;;7.70;;
20417;SDS011;10368;51.436;6.774;2023-04-23T08:20:38;8.70;;;7.17;;
20417;SDS011;10368;51.436;6.774;2023-04-23T08:23:05;8.77;;;7.87;;
20417;SDS011;10368;51.436;6.774;2023-04-23T08:25:33;8.07;;;7.27;;
20417;SDS011;10368;51.436;6.774;2023-04-23T08:28:00;8.63;;;7.77;;
20417;SDS011;10368;51.436;6.774;2023-04-23T08:30:28;6.80;;;6.07;;
20417;SDS011;10368;51.436;6.774;2023-04-23T08:32:55;11.97;;;9.57;;
20417;SDS011;10368;51.436;6.774;2023-04-23T08:35:23;8.30;;;7.47;;
20417;SDS011;10368;51.436;6.774;2023-04-23T08:37:50;10.57;;;7.53;;
20417;SDS011;10368;51.436;6.774;2023-04-23T08:40:17;6.85;;;6.20;;
20417;SDS011;10368;51.436;6.774;2023-04-23T08:45:11;7.85;;;6.32;;
20417;SDS011;10368;51.436;6.774;2023-04-23T08:47:39;7.40;;;6.00;;
20417;SDS011;10368;51.436;6.774;2023-04-23T08:50:10;6.88;;;6.18;;
20417;SDS011;10368;51.436;6.774;2023-04-23T08:52:39;11.38;;;5.72;;
20417;SDS011;10368;51.436;6.774;2023-04-23T08:55:07;9.32;;;6.28;;
20417;SDS011;10368;51.436;6.774;2023-04-23T08:57:36;7.95;;;6.03;;
20417;SDS011;10368;51.436;6.774;2023-04-23T09:00:06;10.45;;;5.63;;
20417;SDS011;10368;51.436;6.774;2023-04-23T09:02:35;5.70;;;5.22;;
20417;SDS011;10368;51.436;6.774;2023-04-23T09:05:07;6.20;;;4.85;;
20417;SDS011;10368;51.436;6.774;2023-04-23T09:07:34;7.90;;;5.13;;
20417;SDS011;10368;51.436;6.774;2023-04-23T09:10:05;5.65;;;5.07;;
20417;SDS011;10368;51.436;6.774;2023-04-23T09:12:34;6.95;;;5.90;;
20417;SDS011;10368;51.436;6.774;2023-04-23T09:15:02;7.57;;;5.10;;
20417;SDS011;10368;51.436;6.774;2023-04-23T09:17:40;7.20;;;4.25;;
20417;SDS011;10368;51.436;6.774;2023-04-23T09:20:10;6.53;;;3.85;;
20417;SDS011;10368;51.436;6.774;2023-04-23T09:25:12;4.80;;;4.00;;
20417;SDS011;10368;51.436;6.774;2023-04-23T09:27:39;4.53;;;3.80;;
20417;SDS011;10368;51.436;6.774;2023-04-23T09:30:07;3.92;;;3.28;;
20417;SDS011;10368;51.436;6.774;2023-04-23T09:32:36;6.35;;;4.32;;
20417;SDS011;10368;51.436;6.774;2023-04-23T09:35:04;9.15;;;4.57;;
20417;SDS011;10368;51.436;6.774;2023-04-23T09:37:33;5.93;;;4.30;;
20417;SDS011;10368;51.436;6.774;2023-04-23T09:40:02;5.40;;;4.85;;
20417;SDS011;10368;51.436;6.774;2023-04-23T09:42:30;7.38;;;2.92;;
20417;SDS011;10368;51.436;6.774;2023-04-23T09:45:01;3.67;;;2.47;;
20417;SDS011;10368;51.436;6.774;2023-04-23T09:47:33;6.68;;;2.85;;
20417;SDS011;10368;51.436;6.774;2023-04-23T09:50:00;4.50;;;3.08;;
20417;SDS011;10368;51.436;6.774;2023-04-23T09:52:29;3.42;;;2.72;;
20417;SDS011;10368;51.436;6.774;2023-04-23T09:54:57;7.47;;;3.72;;
20417;SDS011;10368;51.436;6.774;2023-04-23T09:57:24;7.13;;;3.55;;
20417;SDS011;10368;51.436;6.774;2023-04-23T09:59:52;6.35;;;3.00;;
20417;SDS011;10368;51.436;6.774;2023-04-23T10:02:36;4.53;;;3.47;;
20417;SDS011;10368;51.436;6.774;2023-04-23T10:05:18;6.40;;;3.22;;
20417;SDS011;10368;51.436;6.774;2023-04-23T10:07:48;6.88;;;3.45;;
20417;SDS011;10368;51.436;6.774;2023-04-23T10:10:16;3.55;;;2.60;;
20417;SDS011;10368;51.436;6.774;2023-04-23T10:12:44;4.38;;;2.80;;
20417;SDS011;10368;51.436;6.774;2023-04-23T10:15:21;3.63;;;3.20;;
20417;SDS011;10368;51.436;6.774;2023-04-23T10:17:49;7.03;;;3.17;;
20417;SDS011;10368;51.436;6.774;2023-04-23T10:20:17;3.03;;;2.67;;
20417;SDS011;10368;51.436;6.774;2023-04-23T10:22:46;5.47;;;2.78;;
20417;SDS011;10368;51.436;6.774;2023-04-23T10:25:14;4.80;;;3.55;;
20417;SDS011;10368;51.436;6.774;2023-04-23T10:27:41;3.55;;;2.85;;
20417;SDS011;10368;51.436;6.774;2023-04-23T10:30:19;3.60;;;2.70;;
20417;SDS011;10368;51.436;6.774;2023-04-23T10:32:47;5.35;;;2.47;;
20417;SDS011;10368;51.436;6.774;2023-04-23T10:35:15;2.20;;;1.70;;
20417;SDS011;10368;51.436;6.774;2023-04-23T10:37:42;5.90;;;2.50;;
20417;SDS011;10368;51.436;6.774;2023-04-23T10:40:12;4.57;;;2.75;;
20417;SDS011;10368;51.436;6.774;2023-04-23T10:42:40;6.82;;;4.32;;
20417;SDS011;10368;51.436;6.774;2023-04-23T10:47:49;4.78;;;2.40;;
20417;SDS011;10368;51.436;6.774;2023-04-23T10:50:17;4.57;;;2.53;;
20417;SDS011;10368;51.436;6.774;2023-04-23T10:52:45;4.80;;;2.78;;
20417;SDS011;10368;51.436;6.774;2023-04-23T10:55:16;3.55;;;2.40;;
20417;SDS011;10368;51.436;6.774;2023-04-23T10:58:04;4.05;;;2.40;;
20417;SDS011;10368;51.436;6.774;2023-04-23T11:06:00;3.20;;;2.50;;
20417;SDS011;10368;51.436;6.774;2023-04-23T11:08:28;2.58;;;2.30;;
20417;SDS011;10368;51.436;6.774;2023-04-23T11:11:00;6.00;;;2.22;;
20417;SDS011;10368;51.436;6.774;2023-04-23T11:13:28;4.20;;;2.13;;
20417;SDS011;10368;51.436;6.774;2023-04-23T11:16:11;2.00;;;1.90;;
20417;SDS011;10368;51.436;6.774;2023-04-23T11:18:57;3.00;;;2.30;;
20417;SDS011;10368;51.436;6.774;2023-04-23T11:24:11;4.72;;;2.10;;
20417;SDS011;10368;51.436;6.774;2023-04-23T11:26:38;3.47;;;1.83;;
20417;SDS011;10368;51.436;6.774;2023-04-23T11:29:08;4.78;;;2.55;;
20417;SDS011;10368;51.436;6.774;2023-04-23T11:31:39;3.85;;;1.80;;
20417;SDS011;10368;51.436;6.774;2023-04-23T11:34:27;4.28;;;2.70;;
20417;SDS011;10368;51.436;6.774;2023-04-23T11:36:54;6.10;;;2.25;;
20417;SDS011;10368;51.436;6.774;2023-04-23T11:39:23;8.20;;;4.60;;
20417;SDS011;10368;51.436;6.774;2023-04-23T11:41:51;45.88;;;5.70;;
20417;SDS011;10368;51.436;6.774;2023-04-23T11:44:19;4.45;;;2.50;;
20417;SDS011;10368;51.436;6.774;2023-04-23T11:46:47;4.30;;;2.42;;
20417;SDS011;10368;51.436;6.774;2023-04-23T11:49:15;4.95;;;2.55;;
20417;SDS011;10368;51.436;6.774;2023-04-23T11:51:43;3.03;;;1.75;;
20417;SDS011;10368;51.436;6.774;2023-04-23T11:54:11;1.90;;;1.10;;
20417;SDS011;10368;51.436;6.774;2023-04-23T11:56:39;2.88;;;1.30;;
20417;SDS011;10368;51.436;6.774;2023-04-23T11:59:07;3.13;;;1.55;;
20417;SDS011;10368;51.436;6.774;2023-04-23T12:01:47;5.07;;;1.20;;
20417;SDS011;10368;51.436;6.774;2023-04-23T12:04:17;1.55;;;1.23;;
20417;SDS011;10368;51.436;6.774;2023-04-23T12:06:45;3.15;;;1.45;;
20417;SDS011;10368;51.436;6.774;2023-04-23T12:09:13;4.22;;;2.53;;
20417;SDS011;10368;51.436;6.774;2023-04-23T12:11:41;3.60;;;1.60;;
20417;SDS011;10368;51.436;6.774;2023-04-23T12:14:09;2.33;;;1.15;;
20417;SDS011;10368;51.436;6.774;2023-04-23T12:16:38;2.00;;;0.90;;
20417;SDS011;10368;51.436;6.774;2023-04-23T12:19:06;2.65;;;1.20;;
20417;SDS011;10368;51.436;6.774;2023-04-23T12:21:34;1.92;;;1.08;;
20417;SDS011;10368;51.436;6.774;2023-04-23T12:24:02;4.00;;;1.05;;
20417;SDS011;10368;51.436;6.774;2023-04-23T12:26:30;1.70;;;1.20;;
20417;SDS011;10368;51.436;6.774;2023-04-23T12:28:58;2.85;;;1.17;;
20417;SDS011;10368;51.436;6.774;2023-04-23T12:31:25;2.47;;;1.10;;
20417;SDS011;10368;51.436;6.774;2023-04-23T12:34:11;2.17;;;1.08;;
20417;SDS011;10368;51.436;6.774;2023-04-23T12:36:47;1.80;;;1.20;;
20417;SDS011;10368;51.436;6.774;2023-04-23T12:41:51;4.13;;;1.25;;
20417;SDS011;10368;51.436;6.774;2023-04-23T12:44:19;2.70;;;1.00;;
20417;SDS011;10368;51.436;6.774;2023-04-23T12:46:52;3.05;;;1.25;;
20417;SDS011;10368;51.436;6.774;2023-04-23T12:49:23;3.53;;;1.33;;
20417;SDS011;10368;51.436;6.774;2023-04-23T12:51:50;3.08;;;1.45;;
20417;SDS011;10368;51.436;6.774;2023-04-23T12:54:17;1.75;;;1.30;;
20417;SDS011;10368;51.436;6.774;2023-04-23T12:56:45;2.45;;;1.20;;
20417;SDS011;10368;51.436;6.774;2023-04-23T12:59:12;15.95;;;14.50;;
20417;SDS011;10368;51.436;6.774;2023-04-23T13:01:39;2.30;;;1.50;;
20417;SDS011;10368;51.436;6.774;2023-04-23T13:04:06;1.58;;;1.40;;
20417;SDS011;10368;51.436;6.774;2023-04-23T13:06:34;2.25;;;1.13;;
20417;SDS011;10368;51.436;6.774;2023-04-23T13:09:01;2.85;;;1.13;;
20417;SDS011;10368;51.436;6.774;2023-04-23T13:11:33;1.83;;;0.93;;
20417;SDS011;10368;51.436;6.774;2023-04-23T13:13:59;1.95;;;1.25;;
20417;SDS011;10368;51.436;6.774;2023-04-23T13:16:26;2.47;;;1.00;;
20417;SDS011;10368;51.436;6.774;2023-04-23T13:18:53;5.10;;;1.50;;
20417;SDS011;10368;51.436;6.774;2023-04-23T13:21:20;2.28;;;1.20;;
20417;SDS011;10368;51.436;6.774;2023-04-23T13:23:47;2.17;;;1.30;;
20417;SDS011;10368;51.436;6.774;2023-04-23T13:26:15;2.42;;;1.00;;
20417;SDS011;10368;51.436;6.774;2023-04-23T13:28:42;1.75;;;1.02;;
20417;SDS011;10368;51.436;6.774;2023-04-23T13:31:09;1.83;;;1.00;;
20417;SDS011;10368;51.436;6.774;2023-04-23T13:33:39;3.92;;;1.25;;
20417;SDS011;10368;51.436;6.774;2023-04-23T13:36:06;2.05;;;1.10;;
20417;SDS011;10368;51.436;6.774;2023-04-23T13:38:33;1.48;;;1.00;;
20417;SDS011;10368;51.436;6.774;2023-04-23T13:41:01;2.42;;;1.20;;
20417;SDS011;10368;51.436;6.774;2023-04-23T13:43:27;4.10;;;1.10;;
20417;SDS011;10368;51.436;6.774;2023-04-23T13:45:54;2.65;;;1.25;;
20417;SDS011;10368;51.436;6.774;2023-04-23T13:48:21;3.22;;;2.00;;
20417;SDS011;10368;51.436;6.774;2023-04-23T13:50:48;3.72;;;1.50;;
20417;SDS011;10368;51.436;6.774;2023-04-23T13:53:15;7.03;;;1.73;;
20417;SDS011;10368;51.436;6.774;2023-04-23T13:55:42;4.28;;;1.30;;
20417;SDS011;10368;51.436;6.774;2023-04-23T13:58:09;2.60;;;1.10;;
20417;SDS011;10368;51.436;6.774;2023-04-23T14:00:37;3.25;;;1.33;;
20417;SDS011;10368;51.436;6.774;2023-04-23T14:03:04;2.80;;;1.30;;
20417;SDS011;10368;51.436;6.774;2023-04-23T14:05:31;2.22;;;1.05;;
20417;SDS011;10368;51.436;6.774;2023-04-23T14:07:58;3.58;;;1.65;;
20417;SDS011;10368;51.436;6.774;2023-04-23T14:10:25;1.73;;;1.25;;
20417;SDS011;10368;51.436;6.774;2023-04-23T14:12:52;4.28;;;1.27;;
20417;SDS011;10368;51.436;6.774;2023-04-23T14:15:19;2.50;;;1.48;;
20417;SDS011;10368;51.436;6.774;2023-04-23T14:17:46;1.83;;;1.10;;
20417;SDS011;10368;51.436;6.774;2023-04-23T14:20:13;2.60;;;1.40;;
20417;SDS011;10368;51.436;6.774;2023-04-23T14:22:41;2.00;;;1.10;;
20417;SDS011;10368;51.436;6.774;2023-04-23T14:25:08;2.80;;;1.35;;
20417;SDS011;10368;51.436;6.774;2023-04-23T14:27:43;1.38;;;0.95;;
20417;SDS011;10368;51.436;6.774;2023-04-23T14:30:15;2.58;;;1.65;;
20417;SDS011;10368;51.436;6.774;2023-04-23T14:32:44;1.33;;;1.23;;
20417;SDS011;10368;51.436;6.774;2023-04-23T14:35:15;2.40;;;1.20;;
20417;SDS011;10368;51.436;6.774;2023-04-23T14:37:42;2.40;;;1.70;;
20417;SDS011;10368;51.436;6.774;2023-04-23T14:40:11;3.03;;;1.50;;
20417;SDS011;10368;51.436;6.774;2023-04-23T14:42:40;1.83;;;1.20;;
20417;SDS011;10368;51.436;6.774;2023-04-23T14:45:07;1.10;;;0.73;;
20417;SDS011;10368;51.436;6.774;2023-04-23T14:47:34;1.52;;;1.10;;
20417;SDS011;10368;51.436;6.774;2023-04-23T14:50:01;2.30;;;1.30;;
20417;SDS011;10368;51.436;6.774;2023-04-23T14:52:28;3.13;;;1.13;;
20417;SDS011;10368;51.436;6.774;2023-04-23T14:54:56;1.20;;;1.00;;
20417;SDS011;10368;51.436;6.774;2023-04-23T14:57:23;2.70;;;1.17;;